sensor_id;sensor_type;location;lat;lon;timestamp;temperature;humidity
5304;DHT22;2674;49.722;10.892;2023-02-01T00:00:22;3.50;99.90
5304;DHT22;2674;49.722;10.892;2023-02-01T00:02:47;3.50;99.90
5304;DHT22;2674;49.722;10.892;2023-02-01T00:05:13;3.50;99.90
5304;DHT22;2674;49.722;10.892;2023-02-01T00:07:39;3.50;99.90
5304;DHT22;2674;49.722;10.892;2023-02-01T00:10:06;3.50;99.90
5304;DHT22;2674;49.722;10.892;2023-02-01T00:12:33;3.50;99.90
5304;DHT22;2674;49.722;10.892;2023-02-01T00:14:58;3.50;99.90
5304;DHT22;2674;49.722;10.892;2023-02-01T00:17:24;3.50;99.90
5304;DHT22;2674;49.722;10.892;2023-02-01T00:19:50;3.50;99.90
5304;DHT22;2674;49.722;10.892;2023-02-01T00:22:16;3.60;99.90
5304;DHT22;2674;49.722;10.892;2023-02-01T00:24:42;3.60;99.90
5304;DHT22;2674;49.722;10.892;2023-02-01T00:27:08;3.60;99.90
5304;DHT22;2674;49.722;10.892;2023-02-01T00:29:34;3.60;99.90
5304;DHT22;2674;49.722;10.892;2023-02-01T00:32:00;3.60;99.90
5304;DHT22;2674;49.722;10.892;2023-02-01T00:34:25;3.60;99.90
5304;DHT22;2674;49.722;10.892;2023-02-01T00:36:51;3.70;99.90
5304;DHT22;2674;49.722;10.892;2023-02-01T00:39:17;3.70;99.90
5304;DHT22;2674;49.722;10.892;2023-02-01T00:41:43;3.70;99.90
5304;DHT22;2674;49.722;10.892;2023-02-01T00:44:09;3.70;99.90
5304;DHT22;2674;49.722;10.892;2023-02-01T00:46:35;3.70;99.90
5304;DHT22;2674;49.722;10.892;2023-02-01T00:49:02;3.70;99.90
5304;DHT22;2674;49.722;10.892;2023-02-01T00:51:29;3.70;99.90
5304;DHT22;2674;49.722;10.892;2023-02-01T00:53:55;3.70;99.90
5304;DHT22;2674;49.722;10.892;2023-02-01T00:56:21;3.70;99.90
5304;DHT22;2674;49.722;10.892;2023-02-01T00:58:47;3.70;99.90
5304;DHT22;2674;49.722;10.892;2023-02-01T01:01:22;3.80;99.90
5304;DHT22;2674;49.722;10.892;2023-02-01T01:03:51;3.80;99.90
5304;DHT22;2674;49.722;10.892;2023-02-01T01:06:20;3.80;99.90
5304;DHT22;2674;49.722;10.892;2023-02-01T01:08:47;3.80;99.90
5304;DHT22;2674;49.722;10.892;2023-02-01T01:11:18;3.80;99.90
5304;DHT22;2674;49.722;10.892;2023-02-01T01:13:47;3.90;99.90
5304;DHT22;2674;49.722;10.892;2023-02-01T01:16:13;3.80;99.90
5304;DHT22;2674;49.722;10.892;2023-02-01T01:18:40;3.90;99.90
5304;DHT22;2674;49.722;10.892;2023-02-01T01:21:07;3.90;99.90
5304;DHT22;2674;49.722;10.892;2023-02-01T01:23:34;3.90;99.90
5304;DHT22;2674;49.722;10.892;2023-02-01T01:26:00;3.90;99.90
5304;DHT22;2674;49.722;10.892;2023-02-01T01:28:26;3.90;99.90
5304;DHT22;2674;49.722;10.892;2023-02-01T01:30:52;3.90;99.90
5304;DHT22;2674;49.722;10.892;2023-02-01T01:33:18;3.90;99.90
5304;DHT22;2674;49.722;10.892;2023-02-01T01:35:44;3.90;99.90
5304;DHT22;2674;49.722;10.892;2023-02-01T01:38:10;3.90;99.90
5304;DHT22;2674;49.722;10.892;2023-02-01T01:40:37;3.90;99.90
5304;DHT22;2674;49.722;10.892;2023-02-01T01:43:02;3.90;99.90
5304;DHT22;2674;49.722;10.892;2023-02-01T01:45:32;3.90;99.90
5304;DHT22;2674;49.722;10.892;2023-02-01T01:48:07;3.90;99.90
5304;DHT22;2674;49.722;10.892;2023-02-01T01:50:42;3.90;99.90
5304;DHT22;2674;49.722;10.892;2023-02-01T01:53:12;3.90;99.90
5304;DHT22;2674;49.722;10.892;2023-02-01T01:55:42;3.90;99.90
5304;DHT22;2674;49.722;10.892;2023-02-01T01:58:13;3.90;99.90
5304;DHT22;2674;49.722;10.892;2023-02-01T02:00:41;3.90;99.90
5304;DHT22;2674;49.722;10.892;2023-02-01T02:03:16;3.90;99.90
5304;DHT22;2674;49.722;10.892;2023-02-01T02:05:44;3.90;99.90
5304;DHT22;2674;49.722;10.892;2023-02-01T02:08:10;3.90;99.90
5304;DHT22;2674;49.722;10.892;2023-02-01T02:10:37;3.90;99.90
5304;DHT22;2674;49.722;10.892;2023-02-01T02:13:22;3.90;99.90
5304;DHT22;2674;49.722;10.892;2023-02-01T02:24:15;3.90;99.90
5304;DHT22;2674;49.722;10.892;2023-02-01T02:35:50;3.90;99.90
5304;DHT22;2674;49.722;10.892;2023-02-01T02:44:48;3.90;99.90
5304;DHT22;2674;49.722;10.892;2023-02-01T02:50:37;3.90;99.90
5304;DHT22;2674;49.722;10.892;2023-02-01T02:53:47;4.00;99.90
5304;DHT22;2674;49.722;10.892;2023-02-01T02:56:33;3.90;99.90
5304;DHT22;2674;49.722;10.892;2023-02-01T02:59:20;3.90;99.90
5304;DHT22;2674;49.722;10.892;2023-02-01T03:02:06;4.00;99.90
5304;DHT22;2674;49.722;10.892;2023-02-01T03:04:54;4.00;99.90
5304;DHT22;2674;49.722;10.892;2023-02-01T03:13:07;3.90;99.90
5304;DHT22;2674;49.722;10.892;2023-02-01T03:18:18;3.90;99.90
5304;DHT22;2674;49.722;10.892;2023-02-01T03:20:48;3.80;99.90
5304;DHT22;2674;49.722;10.892;2023-02-01T03:23:19;3.90;99.90
5304;DHT22;2674;49.722;10.892;2023-02-01T03:25:47;3.90;99.90
5304;DHT22;2674;49.722;10.892;2023-02-01T03:28:15;3.90;99.90
5304;DHT22;2674;49.722;10.892;2023-02-01T03:30:46;3.80;99.90
5304;DHT22;2674;49.722;10.892;2023-02-01T03:33:17;3.80;99.90
5304;DHT22;2674;49.722;10.892;2023-02-01T03:41:32;3.90;99.90
5304;DHT22;2674;49.722;10.892;2023-02-01T03:46:50;3.90;99.90
5304;DHT22;2674;49.722;10.892;2023-02-01T03:49:33;3.90;99.90
5304;DHT22;2674;49.722;10.892;2023-02-01T03:52:00;3.90;99.90
5304;DHT22;2674;49.722;10.892;2023-02-01T03:54:28;3.80;99.90
5304;DHT22;2674;49.722;10.892;2023-02-01T03:56:57;3.80;99.90
5304;DHT22;2674;49.722;10.892;2023-02-01T03:59:25;3.80;99.90
5304;DHT22;2674;49.722;10.892;2023-02-01T04:01:51;3.80;99.90
5304;DHT22;2674;49.722;10.892;2023-02-01T04:04:17;3.80;99.90
5304;DHT22;2674;49.722;10.892;2023-02-01T04:06:49;3.80;99.90
5304;DHT22;2674;49.722;10.892;2023-02-01T04:09:16;3.80;99.90
5304;DHT22;2674;49.722;10.892;2023-02-01T04:11:44;3.80;99.90
5304;DHT22;2674;49.722;10.892;2023-02-01T04:14:10;3.70;99.90
5304;DHT22;2674;49.722;10.892;2023-02-01T04:16:36;3.70;99.90
5304;DHT22;2674;49.722;10.892;2023-02-01T04:19:02;3.70;99.90
5304;DHT22;2674;49.722;10.892;2023-02-01T04:21:28;3.70;99.90
5304;DHT22;2674;49.722;10.892;2023-02-01T04:23:54;3.70;99.90
5304;DHT22;2674;49.722;10.892;2023-02-01T04:26:20;3.60;99.90
5304;DHT22;2674;49.722;10.892;2023-02-01T04:28:47;3.60;99.90
5304;DHT22;2674;49.722;10.892;2023-02-01T04:31:17;3.70;99.90
5304;DHT22;2674;49.722;10.892;2023-02-01T04:33:43;3.70;99.90
5304;DHT22;2674;49.722;10.892;2023-02-01T04:36:09;3.70;99.90
5304;DHT22;2674;49.722;10.892;2023-02-01T04:38:35;3.70;99.90
5304;DHT22;2674;49.722;10.892;2023-02-01T04:41:01;3.60;99.90
5304;DHT22;2674;49.722;10.892;2023-02-01T04:43:27;3.60;99.90
5304;DHT22;2674;49.722;10.892;2023-02-01T04:45:53;3.70;99.90
5304;DHT22;2674;49.722;10.892;2023-02-01T04:48:20;3.70;99.90
5304;DHT22;2674;49.722;10.892;2023-02-01T04:50:46;3.60;99.90
5304;DHT22;2674;49.722;10.892;2023-02-01T04:53:16;3.70;99.90
5304;DHT22;2674;49.722;10.892;2023-02-01T04:55:42;3.70;99.90
5304;DHT22;2674;49.722;10.892;2023-02-01T04:58:09;3.70;99.90
5304;DHT22;2674;49.722;10.892;2023-02-01T05:00:36;3.70;99.90
5304;DHT22;2674;49.722;10.892;2023-02-01T05:03:03;3.70;99.90
5304;DHT22;2674;49.722;10.892;2023-02-01T05:05:29;3.70;99.90
5304;DHT22;2674;49.722;10.892;2023-02-01T05:07:55;3.70;99.90
5304;DHT22;2674;49.722;10.892;2023-02-01T05:10:21;3.70;99.90
5304;DHT22;2674;49.722;10.892;2023-02-01T05:12:47;3.80;99.90
5304;DHT22;2674;49.722;10.892;2023-02-01T05:15:32;3.70;99.90
5304;DHT22;2674;49.722;10.892;2023-02-01T05:17:58;3.70;99.90
5304;DHT22;2674;49.722;10.892;2023-02-01T05:20:24;3.70;99.90
5304;DHT22;2674;49.722;10.892;2023-02-01T05:22:50;3.60;99.90
5304;DHT22;2674;49.722;10.892;2023-02-01T05:25:16;3.70;99.90
5304;DHT22;2674;49.722;10.892;2023-02-01T05:27:42;3.70;99.90
5304;DHT22;2674;49.722;10.892;2023-02-01T05:30:11;3.70;99.90
5304;DHT22;2674;49.722;10.892;2023-02-01T05:32:37;3.60;99.90
5304;DHT22;2674;49.722;10.892;2023-02-01T05:35:03;3.70;99.90
5304;DHT22;2674;49.722;10.892;2023-02-01T05:37:29;3.60;99.90
5304;DHT22;2674;49.722;10.892;2023-02-01T05:39:55;3.60;99.90
5304;DHT22;2674;49.722;10.892;2023-02-01T05:42:21;3.60;99.90
5304;DHT22;2674;49.722;10.892;2023-02-01T05:44:47;3.60;99.90
5304;DHT22;2674;49.722;10.892;2023-02-01T05:47:12;3.60;99.90
5304;DHT22;2674;49.722;10.892;2023-02-01T05:49:38;3.60;99.90
5304;DHT22;2674;49.722;10.892;2023-02-01T05:52:04;3.60;99.90
5304;DHT22;2674;49.722;10.892;2023-02-01T05:54:30;3.50;99.90
5304;DHT22;2674;49.722;10.892;2023-02-01T05:56:56;3.50;99.90
5304;DHT22;2674;49.722;10.892;2023-02-01T05:59:22;3.50;99.90
5304;DHT22;2674;49.722;10.892;2023-02-01T06:01:48;3.40;99.90
5304;DHT22;2674;49.722;10.892;2023-02-01T06:04:13;3.40;99.90
5304;DHT22;2674;49.722;10.892;2023-02-01T06:06:39;3.40;99.90
5304;DHT22;2674;49.722;10.892;2023-02-01T06:09:05;3.40;99.90
5304;DHT22;2674;49.722;10.892;2023-02-01T06:11:31;3.40;99.90
5304;DHT22;2674;49.722;10.892;2023-02-01T06:13:57;3.40;99.90
5304;DHT22;2674;49.722;10.892;2023-02-01T06:16:23;3.40;99.90
5304;DHT22;2674;49.722;10.892;2023-02-01T06:18:49;3.40;99.90
5304;DHT22;2674;49.722;10.892;2023-02-01T06:21:15;3.40;99.90
5304;DHT22;2674;49.722;10.892;2023-02-01T06:23:50;3.40;99.90
5304;DHT22;2674;49.722;10.892;2023-02-01T06:26:16;3.40;99.90
5304;DHT22;2674;49.722;10.892;2023-02-01T06:28:43;3.40;99.90
5304;DHT22;2674;49.722;10.892;2023-02-01T06:31:09;3.60;99.90
5304;DHT22;2674;49.722;10.892;2023-02-01T06:33:36;3.30;99.90
5304;DHT22;2674;49.722;10.892;2023-02-01T06:36:05;3.30;99.90
5304;DHT22;2674;49.722;10.892;2023-02-01T06:38:32;3.30;99.90
5304;DHT22;2674;49.722;10.892;2023-02-01T06:41:01;3.30;99.90
5304;DHT22;2674;49.722;10.892;2023-02-01T06:43:28;3.30;99.90
5304;DHT22;2674;49.722;10.892;2023-02-01T06:46:02;3.30;99.90
5304;DHT22;2674;49.722;10.892;2023-02-01T06:48:28;3.30;99.90
5304;DHT22;2674;49.722;10.892;2023-02-01T06:50:54;3.20;99.90
5304;DHT22;2674;49.722;10.892;2023-02-01T06:53:20;3.20;99.90
5304;DHT22;2674;49.722;10.892;2023-02-01T06:55:58;3.20;99.90
5304;DHT22;2674;49.722;10.892;2023-02-01T06:58:27;3.20;99.90
5304;DHT22;2674;49.722;10.892;2023-02-01T07:00:53;3.20;99.90
5304;DHT22;2674;49.722;10.892;2023-02-01T07:03:19;3.20;99.90
5304;DHT22;2674;49.722;10.892;2023-02-01T07:05:45;3.20;99.90
5304;DHT22;2674;49.722;10.892;2023-02-01T07:08:11;3.20;99.90
5304;DHT22;2674;49.722;10.892;2023-02-01T07:10:37;3.20;99.90
5304;DHT22;2674;49.722;10.892;2023-02-01T07:13:03;3.30;99.90
5304;DHT22;2674;49.722;10.892;2023-02-01T07:15:29;3.20;99.90
5304;DHT22;2674;49.722;10.892;2023-02-01T07:17:55;3.20;99.90
5304;DHT22;2674;49.722;10.892;2023-02-01T07:20:21;3.30;99.90
5304;DHT22;2674;49.722;10.892;2023-02-01T07:22:47;3.20;99.90
5304;DHT22;2674;49.722;10.892;2023-02-01T07:25:13;3.20;99.90
5304;DHT22;2674;49.722;10.892;2023-02-01T07:27:38;3.30;99.90
5304;DHT22;2674;49.722;10.892;2023-02-01T07:30:05;3.20;99.90
5304;DHT22;2674;49.722;10.892;2023-02-01T07:32:31;3.20;99.90
5304;DHT22;2674;49.722;10.892;2023-02-01T07:34:57;3.30;99.90
5304;DHT22;2674;49.722;10.892;2023-02-01T07:37:25;3.20;99.90
5304;DHT22;2674;49.722;10.892;2023-02-01T07:39:51;3.30;99.90
5304;DHT22;2674;49.722;10.892;2023-02-01T07:42:17;3.30;99.90
5304;DHT22;2674;49.722;10.892;2023-02-01T07:44:43;3.30;99.90
5304;DHT22;2674;49.722;10.892;2023-02-01T07:47:09;3.30;99.90
5304;DHT22;2674;49.722;10.892;2023-02-01T07:49:35;3.40;99.90
5304;DHT22;2674;49.722;10.892;2023-02-01T07:52:01;3.40;99.90
5304;DHT22;2674;49.722;10.892;2023-02-01T07:54:27;3.40;99.90
5304;DHT22;2674;49.722;10.892;2023-02-01T07:56:52;3.50;99.90
5304;DHT22;2674;49.722;10.892;2023-02-01T07:59:18;3.50;99.90
5304;DHT22;2674;49.722;10.892;2023-02-01T08:01:44;3.60;99.90
5304;DHT22;2674;49.722;10.892;2023-02-01T08:04:12;3.60;99.90
5304;DHT22;2674;49.722;10.892;2023-02-01T08:06:38;3.70;99.90
5304;DHT22;2674;49.722;10.892;2023-02-01T08:09:06;3.70;99.90
5304;DHT22;2674;49.722;10.892;2023-02-01T08:11:36;3.80;99.90
5304;DHT22;2674;49.722;10.892;2023-02-01T08:14:03;3.80;99.90
5304;DHT22;2674;49.722;10.892;2023-02-01T08:16:29;3.80;99.90
5304;DHT22;2674;49.722;10.892;2023-02-01T08:18:55;3.90;99.90
5304;DHT22;2674;49.722;10.892;2023-02-01T08:21:26;3.90;99.90
5304;DHT22;2674;49.722;10.892;2023-02-01T08:24:03;4.00;99.90
5304;DHT22;2674;49.722;10.892;2023-02-01T08:26:28;4.00;99.90
5304;DHT22;2674;49.722;10.892;2023-02-01T08:28:56;4.00;99.90
5304;DHT22;2674;49.722;10.892;2023-02-01T08:31:25;4.10;99.90
5304;DHT22;2674;49.722;10.892;2023-02-01T08:33:53;4.10;99.90
5304;DHT22;2674;49.722;10.892;2023-02-01T08:36:23;4.10;99.90
5304;DHT22;2674;49.722;10.892;2023-02-01T08:38:50;4.20;99.90
5304;DHT22;2674;49.722;10.892;2023-02-01T08:41:20;4.20;99.90
5304;DHT22;2674;49.722;10.892;2023-02-01T08:43:46;4.30;99.90
5304;DHT22;2674;49.722;10.892;2023-02-01T08:46:13;4.40;99.90
5304;DHT22;2674;49.722;10.892;2023-02-01T08:48:39;4.30;99.90
5304;DHT22;2674;49.722;10.892;2023-02-01T08:51:07;4.40;99.90
5304;DHT22;2674;49.722;10.892;2023-02-01T08:53:33;4.40;99.90
5304;DHT22;2674;49.722;10.892;2023-02-01T08:55:59;4.50;99.90
5304;DHT22;2674;49.722;10.892;2023-02-01T08:58:26;4.50;99.90
5304;DHT22;2674;49.722;10.892;2023-02-01T09:00:51;4.60;99.90
5304;DHT22;2674;49.722;10.892;2023-02-01T09:03:17;4.50;99.90
5304;DHT22;2674;49.722;10.892;2023-02-01T09:05:43;4.50;99.90
5304;DHT22;2674;49.722;10.892;2023-02-01T09:08:11;4.60;99.90
5304;DHT22;2674;49.722;10.892;2023-02-01T09:10:40;4.60;99.90
5304;DHT22;2674;49.722;10.892;2023-02-01T09:13:07;4.70;99.90
5304;DHT22;2674;49.722;10.892;2023-02-01T09:15:33;4.80;99.90
5304;DHT22;2674;49.722;10.892;2023-02-01T09:17:59;4.80;99.90
5304;DHT22;2674;49.722;10.892;2023-02-01T09:20:25;4.90;99.90
5304;DHT22;2674;49.722;10.892;2023-02-01T09:22:52;5.00;99.90
5304;DHT22;2674;49.722;10.892;2023-02-01T09:25:18;5.00;99.90
5304;DHT22;2674;49.722;10.892;2023-02-01T09:27:44;5.00;99.90
5304;DHT22;2674;49.722;10.892;2023-02-01T09:30:10;5.00;99.90
5304;DHT22;2674;49.722;10.892;2023-02-01T09:32:37;4.90;99.90
5304;DHT22;2674;49.722;10.892;2023-02-01T09:35:02;4.90;99.90
5304;DHT22;2674;49.722;10.892;2023-02-01T09:37:28;5.00;99.90
5304;DHT22;2674;49.722;10.892;2023-02-01T09:39:54;5.10;99.90
5304;DHT22;2674;49.722;10.892;2023-02-01T09:47:51;5.40;99.90
5304;DHT22;2674;49.722;10.892;2023-02-01T09:50:38;5.40;99.90
5304;DHT22;2674;49.722;10.892;2023-02-01T09:53:06;5.40;99.90
5304;DHT22;2674;49.722;10.892;2023-02-01T09:55:43;5.40;99.90
5304;DHT22;2674;49.722;10.892;2023-02-01T09:58:16;5.50;99.90
5304;DHT22;2674;49.722;10.892;2023-02-01T10:00:58;5.50;99.90
5304;DHT22;2674;49.722;10.892;2023-02-01T10:03:28;5.50;99.90
5304;DHT22;2674;49.722;10.892;2023-02-01T10:06:19;5.50;99.90
5304;DHT22;2674;49.722;10.892;2023-02-01T10:14:18;5.50;99.90
5304;DHT22;2674;49.722;10.892;2023-02-01T10:23:19;5.50;99.90
5304;DHT22;2674;49.722;10.892;2023-02-01T10:25:42;5.60;99.90
5304;DHT22;2674;49.722;10.892;2023-02-01T10:28:14;5.60;99.90
5304;DHT22;2674;49.722;10.892;2023-02-01T10:30:44;5.60;99.90
5304;DHT22;2674;49.722;10.892;2023-02-01T10:35:40;5.60;99.90
5304;DHT22;2674;49.722;10.892;2023-02-01T10:38:26;5.60;99.90
5304;DHT22;2674;49.722;10.892;2023-02-01T10:40:56;5.60;99.90
5304;DHT22;2674;49.722;10.892;2023-02-01T10:43:22;5.60;99.90
5304;DHT22;2674;49.722;10.892;2023-02-01T10:45:48;5.60;99.90
5304;DHT22;2674;49.722;10.892;2023-02-01T10:48:14;5.60;99.90
5304;DHT22;2674;49.722;10.892;2023-02-01T10:53:24;5.60;99.90
5304;DHT22;2674;49.722;10.892;2023-02-01T10:55:53;5.60;99.90
5304;DHT22;2674;49.722;10.892;2023-02-01T10:58:30;5.50;99.90
5304;DHT22;2674;49.722;10.892;2023-02-01T11:01:06;5.60;99.90
5304;DHT22;2674;49.722;10.892;2023-02-01T11:03:39;5.50;99.90
5304;DHT22;2674;49.722;10.892;2023-02-01T11:09:18;5.70;99.90
5304;DHT22;2674;49.722;10.892;2023-02-01T11:14:41;5.80;99.90
5304;DHT22;2674;49.722;10.892;2023-02-01T11:17:23;5.80;99.90
5304;DHT22;2674;49.722;10.892;2023-02-01T11:20:01;5.80;99.90
5304;DHT22;2674;49.722;10.892;2023-02-01T11:22:27;5.90;99.90
5304;DHT22;2674;49.722;10.892;2023-02-01T11:24:56;6.00;99.90
5304;DHT22;2674;49.722;10.892;2023-02-01T11:27:24;6.00;99.90
5304;DHT22;2674;49.722;10.892;2023-02-01T11:29:52;6.00;99.90
5304;DHT22;2674;49.722;10.892;2023-02-01T11:32:23;6.00;99.90
5304;DHT22;2674;49.722;10.892;2023-02-01T11:34:55;6.00;99.90
5304;DHT22;2674;49.722;10.892;2023-02-01T11:37:30;6.10;99.90
5304;DHT22;2674;49.722;10.892;2023-02-01T11:40:02;6.10;99.90
5304;DHT22;2674;49.722;10.892;2023-02-01T11:42:29;6.10;99.90
5304;DHT22;2674;49.722;10.892;2023-02-01T11:45:17;6.10;99.90
5304;DHT22;2674;49.722;10.892;2023-02-01T11:47:43;6.10;97.50
5304;DHT22;2674;49.722;10.892;2023-02-01T11:50:25;6.10;93.10
5304;DHT22;2674;49.722;10.892;2023-02-01T12:12:38;5.90;99.90
5304;DHT22;2674;49.722;10.892;2023-02-01T12:15:26;5.90;94.40
5304;DHT22;2674;49.722;10.892;2023-02-01T12:18:04;5.80;94.50
5304;DHT22;2674;49.722;10.892;2023-02-01T12:23:51;5.80;93.30
5304;DHT22;2674;49.722;10.892;2023-02-01T12:31:50;5.80;86.90
5304;DHT22;2674;49.722;10.892;2023-02-01T12:42:29;5.90;78.90
5304;DHT22;2674;49.722;10.892;2023-02-01T12:45:20;5.90;76.30
5304;DHT22;2674;49.722;10.892;2023-02-01T12:47:56;6.00;83.30
5304;DHT22;2674;49.722;10.892;2023-02-01T12:50:33;6.00;75.00
5304;DHT22;2674;49.722;10.892;2023-02-01T12:53:27;6.00;76.50
5304;DHT22;2674;49.722;10.892;2023-02-01T12:56:01;6.00;74.20
5304;DHT22;2674;49.722;10.892;2023-02-01T12:58:49;6.00;82.60
5304;DHT22;2674;49.722;10.892;2023-02-01T13:01:25;6.00;73.70
5304;DHT22;2674;49.722;10.892;2023-02-01T13:06:33;6.00;74.00
5304;DHT22;2674;49.722;10.892;2023-02-01T13:11:45;5.90;88.90
5304;DHT22;2674;49.722;10.892;2023-02-01T13:19:59;5.90;82.10
5304;DHT22;2674;49.722;10.892;2023-02-01T13:25:17;5.80;90.90
5304;DHT22;2674;49.722;10.892;2023-02-01T13:27:46;5.80;94.60
5304;DHT22;2674;49.722;10.892;2023-02-01T13:30:25;5.80;96.70
5304;DHT22;2674;49.722;10.892;2023-02-01T13:41:50;5.70;99.90
5304;DHT22;2674;49.722;10.892;2023-02-01T13:44:32;5.70;99.90
5304;DHT22;2674;49.722;10.892;2023-02-01T13:47:02;5.70;99.90
5304;DHT22;2674;49.722;10.892;2023-02-01T13:49:36;5.70;99.90
5304;DHT22;2674;49.722;10.892;2023-02-01T13:52:03;5.70;99.90
5304;DHT22;2674;49.722;10.892;2023-02-01T13:54:36;5.70;99.70
5304;DHT22;2674;49.722;10.892;2023-02-01T13:57:04;5.70;99.90
5304;DHT22;2674;49.722;10.892;2023-02-01T14:10:54;5.70;99.90
5304;DHT22;2674;49.722;10.892;2023-02-01T14:13:37;5.70;99.90
5304;DHT22;2674;49.722;10.892;2023-02-01T14:21:26;5.70;99.90
5304;DHT22;2674;49.722;10.892;2023-02-01T14:34:16;5.60;99.90
5304;DHT22;2674;49.722;10.892;2023-02-01T14:36:58;5.50;99.90
5304;DHT22;2674;49.722;10.892;2023-02-01T14:39:35;5.50;99.90
5304;DHT22;2674;49.722;10.892;2023-02-01T14:42:14;5.50;99.90
5304;DHT22;2674;49.722;10.892;2023-02-01T14:44:42;5.40;99.90
5304;DHT22;2674;49.722;10.892;2023-02-01T14:52:41;5.40;99.90
5304;DHT22;2674;49.722;10.892;2023-02-01T14:55:25;5.50;99.90
5304;DHT22;2674;49.722;10.892;2023-02-01T14:57:55;5.50;99.90
5304;DHT22;2674;49.722;10.892;2023-02-01T15:00:26;5.40;99.90
5304;DHT22;2674;49.722;10.892;2023-02-01T15:02:55;5.50;99.90
5304;DHT22;2674;49.722;10.892;2023-02-01T15:05:29;5.40;99.90
5304;DHT22;2674;49.722;10.892;2023-02-01T15:08:03;5.40;99.90
5304;DHT22;2674;49.722;10.892;2023-02-01T15:10:33;5.50;99.90
5304;DHT22;2674;49.722;10.892;2023-02-01T15:13:05;5.40;99.90
5304;DHT22;2674;49.722;10.892;2023-02-01T15:15:30;5.40;99.90
5304;DHT22;2674;49.722;10.892;2023-02-01T15:18:01;5.40;99.90
5304;DHT22;2674;49.722;10.892;2023-02-01T15:20:29;5.40;99.90
5304;DHT22;2674;49.722;10.892;2023-02-01T15:23:05;5.40;99.90
5304;DHT22;2674;49.722;10.892;2023-02-01T15:25:36;5.30;99.90
5304;DHT22;2674;49.722;10.892;2023-02-01T15:28:04;5.30;99.90
5304;DHT22;2674;49.722;10.892;2023-02-01T15:30:34;5.30;99.90
5304;DHT22;2674;49.722;10.892;2023-02-01T15:33:19;5.30;99.90
5304;DHT22;2674;49.722;10.892;2023-02-01T15:36:06;5.30;99.90
5304;DHT22;2674;49.722;10.892;2023-02-01T15:38:46;5.30;99.90
5304;DHT22;2674;49.722;10.892;2023-02-01T15:41:16;5.20;99.90
5304;DHT22;2674;49.722;10.892;2023-02-01T15:46:39;5.20;99.90
5304;DHT22;2674;49.722;10.892;2023-02-01T15:49:20;5.20;99.90
5304;DHT22;2674;49.722;10.892;2023-02-01T15:51:48;5.20;99.90
5304;DHT22;2674;49.722;10.892;2023-02-01T15:54:25;5.20;99.90
5304;DHT22;2674;49.722;10.892;2023-02-01T15:56:53;5.10;99.90
5304;DHT22;2674;49.722;10.892;2023-02-01T15:59:25;5.10;99.90
5304;DHT22;2674;49.722;10.892;2023-02-01T16:01:53;5.10;99.90
5304;DHT22;2674;49.722;10.892;2023-02-01T16:04:27;5.10;99.90
5304;DHT22;2674;49.722;10.892;2023-02-01T16:07:03;5.10;99.90
5304;DHT22;2674;49.722;10.892;2023-02-01T16:09:54;5.10;99.90
5304;DHT22;2674;49.722;10.892;2023-02-01T16:12:45;5.10;99.90
5304;DHT22;2674;49.722;10.892;2023-02-01T16:15:11;5.10;99.90
5304;DHT22;2674;49.722;10.892;2023-02-01T16:17:37;5.10;99.90
5304;DHT22;2674;49.722;10.892;2023-02-01T16:20:03;5.10;99.90
5304;DHT22;2674;49.722;10.892;2023-02-01T16:22:29;5.10;99.90
5304;DHT22;2674;49.722;10.892;2023-02-01T16:24:55;5.10;99.90
5304;DHT22;2674;49.722;10.892;2023-02-01T16:27:21;5.10;99.90
5304;DHT22;2674;49.722;10.892;2023-02-01T16:29:48;5.10;99.90
5304;DHT22;2674;49.722;10.892;2023-02-01T16:32:17;5.10;99.90
5304;DHT22;2674;49.722;10.892;2023-02-01T16:34:44;5.10;99.90
5304;DHT22;2674;49.722;10.892;2023-02-01T16:37:20;5.10;99.90
5304;DHT22;2674;49.722;10.892;2023-02-01T16:39:46;5.10;99.90
5304;DHT22;2674;49.722;10.892;2023-02-01T16:42:13;5.10;99.90
5304;DHT22;2674;49.722;10.892;2023-02-01T16:44:39;5.10;99.90
5304;DHT22;2674;49.722;10.892;2023-02-01T16:47:15;5.10;99.90
5304;DHT22;2674;49.722;10.892;2023-02-01T16:49:42;5.10;99.90
5304;DHT22;2674;49.722;10.892;2023-02-01T16:52:15;5.10;99.90
5304;DHT22;2674;49.722;10.892;2023-02-01T16:54:41;5.20;99.90
5304;DHT22;2674;49.722;10.892;2023-02-01T16:57:11;5.20;99.90
5304;DHT22;2674;49.722;10.892;2023-02-01T16:59:38;5.10;99.90
5304;DHT22;2674;49.722;10.892;2023-02-01T17:02:04;5.20;99.90
5304;DHT22;2674;49.722;10.892;2023-02-01T17:04:29;5.20;99.90
5304;DHT22;2674;49.722;10.892;2023-02-01T17:06:55;5.20;99.90
5304;DHT22;2674;49.722;10.892;2023-02-01T17:09:21;5.20;99.90
5304;DHT22;2674;49.722;10.892;2023-02-01T17:11:48;5.10;99.90
5304;DHT22;2674;49.722;10.892;2023-02-01T17:14:16;5.10;99.90
5304;DHT22;2674;49.722;10.892;2023-02-01T17:16:44;5.20;99.90
5304;DHT22;2674;49.722;10.892;2023-02-01T17:19:19;5.10;99.90
5304;DHT22;2674;49.722;10.892;2023-02-01T17:21:50;5.10;99.90
5304;DHT22;2674;49.722;10.892;2023-02-01T17:24:19;5.10;99.90
5304;DHT22;2674;49.722;10.892;2023-02-01T17:26:45;5.10;99.90
5304;DHT22;2674;49.722;10.892;2023-02-01T17:29:12;5.00;99.90
5304;DHT22;2674;49.722;10.892;2023-02-01T17:31:40;5.00;99.90
5304;DHT22;2674;49.722;10.892;2023-02-01T17:34:09;5.00;99.90
5304;DHT22;2674;49.722;10.892;2023-02-01T17:36:35;5.00;99.90
5304;DHT22;2674;49.722;10.892;2023-02-01T17:39:01;5.00;99.90
5304;DHT22;2674;49.722;10.892;2023-02-01T17:41:27;4.90;99.90
5304;DHT22;2674;49.722;10.892;2023-02-01T17:43:53;4.90;99.90
5304;DHT22;2674;49.722;10.892;2023-02-01T17:46:19;4.90;99.90
5304;DHT22;2674;49.722;10.892;2023-02-01T17:48:50;4.80;99.90
5304;DHT22;2674;49.722;10.892;2023-02-01T17:51:27;4.80;99.90
5304;DHT22;2674;49.722;10.892;2023-02-01T17:53:53;4.70;99.90
5304;DHT22;2674;49.722;10.892;2023-02-01T17:56:22;4.70;99.90
5304;DHT22;2674;49.722;10.892;2023-02-01T17:58:49;4.70;99.90
5304;DHT22;2674;49.722;10.892;2023-02-01T18:01:20;4.60;99.90
5304;DHT22;2674;49.722;10.892;2023-02-01T18:03:46;4.60;99.90
5304;DHT22;2674;49.722;10.892;2023-02-01T18:06:23;4.60;99.90
5304;DHT22;2674;49.722;10.892;2023-02-01T18:08:51;4.70;99.90
5304;DHT22;2674;49.722;10.892;2023-02-01T18:11:21;4.70;99.90
5304;DHT22;2674;49.722;10.892;2023-02-01T18:13:48;4.70;99.90
5304;DHT22;2674;49.722;10.892;2023-02-01T18:16:24;4.70;99.90
5304;DHT22;2674;49.722;10.892;2023-02-01T18:18:51;4.70;99.90
5304;DHT22;2674;49.722;10.892;2023-02-01T18:21:18;4.70;99.90
5304;DHT22;2674;49.722;10.892;2023-02-01T18:23:44;4.70;99.90
5304;DHT22;2674;49.722;10.892;2023-02-01T18:26:15;4.80;99.90
5304;DHT22;2674;49.722;10.892;2023-02-01T18:28:42;4.80;99.90
5304;DHT22;2674;49.722;10.892;2023-02-01T18:31:24;4.80;99.90
5304;DHT22;2674;49.722;10.892;2023-02-01T18:33:52;4.80;99.90
5304;DHT22;2674;49.722;10.892;2023-02-01T18:36:18;4.80;99.90
5304;DHT22;2674;49.722;10.892;2023-02-01T18:38:44;4.80;99.90
5304;DHT22;2674;49.722;10.892;2023-02-01T18:41:15;4.90;99.90
5304;DHT22;2674;49.722;10.892;2023-02-01T18:43:42;4.90;99.90
5304;DHT22;2674;49.722;10.892;2023-02-01T18:46:11;4.90;99.90
5304;DHT22;2674;49.722;10.892;2023-02-01T18:48:41;4.90;99.90
5304;DHT22;2674;49.722;10.892;2023-02-01T18:51:12;4.90;99.90
5304;DHT22;2674;49.722;10.892;2023-02-01T18:53:41;4.90;99.90
5304;DHT22;2674;49.722;10.892;2023-02-01T18:56:10;4.90;99.90
5304;DHT22;2674;49.722;10.892;2023-02-01T18:58:37;4.90;99.90
5304;DHT22;2674;49.722;10.892;2023-02-01T19:01:10;4.90;99.90
5304;DHT22;2674;49.722;10.892;2023-02-01T19:03:37;4.90;99.90